createdAt,value
2023-01-01T00:02:01.675Z,3.74
2023-01-01T00:04:28.451Z,3.72
2023-01-01T00:06:54.869Z,3.71
2023-01-01T00:09:21.432Z,3.69
2023-01-01T00:11:47.823Z,3.68
2023-01-01T00:14:14.273Z,3.71
2023-01-01T00:16:41.007Z,3.71
2023-01-01T00:19:07.597Z,3.67
2023-01-01T00:21:34.165Z,3.64
2023-01-01T00:24:00.590Z,3.62
2023-01-01T00:26:31.083Z,3.62
2023-01-01T00:29:01.758Z,3.60
2023-01-01T00:31:28.445Z,3.57
2023-01-01T00:33:56.174Z,3.53
2023-01-01T00:36:24.964Z,3.48
2023-01-01T00:38:51.617Z,3.46
2023-01-01T00:41:18.645Z,3.44
2023-01-01T00:43:45.501Z,3.40
2023-01-01T00:46:12.950Z,3.39
2023-01-01T00:48:40.004Z,3.38
2023-01-01T00:51:07.166Z,3.36
2023-01-01T00:53:33.902Z,3.35
2023-01-01T00:56:00.559Z,3.35
2023-01-01T00:58:30.880Z,3.36
2023-01-01T01:00:57.431Z,3.40
2023-01-01T01:03:25.102Z,3.52
2023-01-01T01:05:51.617Z,3.60
2023-01-01T01:08:18.061Z,3.60
2023-01-01T01:10:44.599Z,3.62
2023-01-01T01:13:11.134Z,3.60
2023-01-01T01:15:38.586Z,3.60
2023-01-01T01:18:05.049Z,3.61
2023-01-01T01:20:31.584Z,3.60
2023-01-01T01:22:58.224Z,3.58
2023-01-01T01:25:24.638Z,3.54
2023-01-01T01:27:51.133Z,3.53
2023-01-01T01:30:17.620Z,3.53
2023-01-01T01:32:44.188Z,3.52
2023-01-01T01:35:10.732Z,3.53
2023-01-01T01:37:37.122Z,3.51
2023-01-01T01:40:04.106Z,3.48
2023-01-01T01:42:30.685Z,3.45
2023-01-01T01:44:59.837Z,3.43
2023-01-01T01:47:48.628Z,3.40
2023-01-01T01:50:32.051Z,3.38
2023-01-01T01:53:04.484Z,3.35
2023-01-01T01:55:34.435Z,3.34
2023-01-01T01:58:01.889Z,3.31
2023-01-01T02:00:28.370Z,3.30
2023-01-01T02:03:04.231Z,3.27
2023-01-01T02:05:32.208Z,3.24
2023-01-01T02:07:59.726Z,3.21
2023-01-01T02:10:28.310Z,3.19
2023-01-01T02:12:55.077Z,3.17
2023-01-01T02:15:25.402Z,3.15
2023-01-01T02:18:07.020Z,3.11
2023-01-01T02:20:37.238Z,3.05
2023-01-01T02:23:32.710Z,2.98
2023-01-01T02:26:36.050Z,2.98
2023-01-01T02:29:08.050Z,2.93
2023-01-01T02:31:42.958Z,2.90
2023-01-01T02:34:14.845Z,2.84
2023-01-01T02:36:48.187Z,2.77
2023-01-01T02:39:16.624Z,2.74
2023-01-01T02:41:50.243Z,2.69
2023-01-01T02:44:19.919Z,2.71
2023-01-01T02:46:46.408Z,2.81
2023-01-01T02:49:12.908Z,2.83
2023-01-01T02:51:49.113Z,2.89
2023-01-01T02:54:25.746Z,2.95
2023-01-01T02:57:09.396Z,2.98
2023-01-01T02:59:39.047Z,3.01
2023-01-01T03:02:30.747Z,2.99
2023-01-01T03:05:11.206Z,2.98
2023-01-01T03:07:57.308Z,3.04
2023-01-01T03:10:30.412Z,3.06
2023-01-01T03:13:04.108Z,3.06
2023-01-01T03:15:30.579Z,3.06
2023-01-01T03:18:09.347Z,3.09
2023-01-01T03:20:40.182Z,3.10
2023-01-01T03:23:12.088Z,3.08
2023-01-01T03:25:47.719Z,3.06
2023-01-01T03:28:18.876Z,3.06
2023-01-01T03:30:47.676Z,3.03
2023-01-01T03:33:24.762Z,2.99
2023-01-01T03:36:06.939Z,2.96
2023-01-01T03:38:45.247Z,2.92
2023-01-01T03:41:17.097Z,2.85
2023-01-01T03:43:51.653Z,2.80
2023-01-01T03:46:24.118Z,2.76
2023-01-01T03:48:52.082Z,2.72
2023-01-01T03:51:37.961Z,2.70
2023-01-01T03:54:10.174Z,2.66
2023-01-01T03:56:51.541Z,2.62
2023-01-01T03:59:41.991Z,2.57
2023-01-01T04:02:13.851Z,2.53
2023-01-01T04:04:40.732Z,2.52
2023-01-01T04:07:15.034Z,2.52
2023-01-01T04:09:47.985Z,2.47
2023-01-01T04:12:17.116Z,2.49
2023-01-01T04:14:43.917Z,2.53
2023-01-01T04:17:12.301Z,2.54
2023-01-01T04:19:38.863Z,2.54
2023-01-01T04:22:06.042Z,2.54
2023-01-01T04:24:32.519Z,2.59
2023-01-01T04:26:59.307Z,2.61
2023-01-01T04:29:25.750Z,2.62
2023-01-01T04:31:52.479Z,2.61
2023-01-01T04:34:19.113Z,2.59
2023-01-01T04:36:45.520Z,2.60
2023-01-01T04:39:11.981Z,2.59
2023-01-01T04:41:38.443Z,2.60
2023-01-01T04:44:05.315Z,2.62
2023-01-01T04:46:31.855Z,2.61
2023-01-01T04:48:58.487Z,2.62
2023-01-01T04:51:25.016Z,2.61
2023-01-01T04:53:51.551Z,2.59
2023-01-01T04:56:20.888Z,2.58
2023-01-01T04:58:48.424Z,2.57
2023-01-01T05:01:34.647Z,2.61
2023-01-01T05:04:01.856Z,2.64
2023-01-01T05:06:28.315Z,2.64
2023-01-01T05:08:57.239Z,2.65
2023-01-01T05:11:32.895Z,2.66
2023-01-01T05:14:00.881Z,2.62
2023-01-01T05:16:30.430Z,2.59
2023-01-01T05:18:57.717Z,2.60
2023-01-01T05:21:32.747Z,2.62
2023-01-01T05:24:08.609Z,2.64
2023-01-01T05:26:41.190Z,2.64
2023-01-01T05:29:13.675Z,2.69
2023-01-01T05:31:42.552Z,2.68
2023-01-01T05:36:36.745Z,2.63
2023-01-01T05:39:03.198Z,2.65
2023-01-01T05:41:29.622Z,2.67
2023-01-01T05:43:56.057Z,2.71
2023-01-01T05:46:24.675Z,2.74
2023-01-01T05:48:53.261Z,2.77
2023-01-01T05:51:25.138Z,2.79
2023-01-01T05:53:53.588Z,2.82
2023-01-01T05:56:20.267Z,2.84
2023-01-01T05:58:46.930Z,2.85
2023-01-01T06:01:17.778Z,2.83
2023-01-01T06:03:44.908Z,2.81
2023-01-01T06:06:17.904Z,2.83
2023-01-01T06:08:50.783Z,2.81
2023-01-01T06:11:17.651Z,2.81
2023-01-01T06:13:44.789Z,2.81
2023-01-01T06:16:12.210Z,2.78
2023-01-01T06:18:38.751Z,2.73
2023-01-01T06:21:14.220Z,2.68
2023-01-01T06:23:41.087Z,2.62
2023-01-01T06:26:18.924Z,2.56
2023-01-01T06:28:46.966Z,2.51
2023-01-01T06:31:16.422Z,2.45
2023-01-01T06:33:43.651Z,2.40
2023-01-01T06:36:12.733Z,2.35
2023-01-01T06:38:42.203Z,2.29
2023-01-01T06:41:12.906Z,2.24
2023-01-01T06:43:39.635Z,2.20
2023-01-01T06:46:23.330Z,2.15
2023-01-01T06:48:53.750Z,2.11
2023-01-01T06:51:22.891Z,2.09
2023-01-01T06:53:50.786Z,2.08
2023-01-01T06:56:18.149Z,2.09
2023-01-01T06:58:45.072Z,2.09
2023-01-01T07:01:15.150Z,2.09
2023-01-01T07:03:42.751Z,2.14
2023-01-01T07:06:10.554Z,2.23
2023-01-01T07:08:37.675Z,2.30
2023-01-01T07:11:04.437Z,2.39
2023-01-01T07:13:31.770Z,2.47
2023-01-01T07:15:58.698Z,2.59
2023-01-01T07:18:25.246Z,2.69
2023-01-01T07:20:57.970Z,2.83
2023-01-01T07:23:25.476Z,3.03
2023-01-01T07:25:53.830Z,3.21
2023-01-01T07:28:21.822Z,3.34
2023-01-01T07:30:48.581Z,3.43
2023-01-01T07:33:17.455Z,3.53
2023-01-01T07:35:44.456Z,3.61
2023-01-01T07:38:12.187Z,3.68
2023-01-01T07:40:39.293Z,3.76
2023-01-01T07:43:06.708Z,3.85
2023-01-01T07:45:34.356Z,3.91
2023-01-01T07:48:01.689Z,3.98
2023-01-01T07:50:31.719Z,4.06
2023-01-01T07:52:58.978Z,4.11
2023-01-01T07:55:25.545Z,4.13
2023-01-01T07:57:52.049Z,4.15
2023-01-01T08:00:20.982Z,4.22
2023-01-01T08:02:47.975Z,4.32
2023-01-01T08:05:14.544Z,4.51
2023-01-01T08:07:46.550Z,4.68
2023-01-01T08:10:13.072Z,4.90
2023-01-01T08:12:39.784Z,5.17
2023-01-01T08:15:07.657Z,5.43
2023-01-01T08:17:34.100Z,5.68
2023-01-01T08:20:00.721Z,5.89
2023-01-01T08:22:27.280Z,6.08
2023-01-01T08:24:53.732Z,6.26
2023-01-01T08:27:20.129Z,6.42
2023-01-01T08:29:46.576Z,6.56
2023-01-01T08:32:13.657Z,6.68
2023-01-01T08:34:40.598Z,6.82
2023-01-01T08:37:11.638Z,6.92
2023-01-01T08:39:38.109Z,7.02
2023-01-01T08:42:10.200Z,7.12
2023-01-01T08:44:38.530Z,7.24
2023-01-01T08:47:05.095Z,7.30
2023-01-01T08:49:31.626Z,7.31
2023-01-01T08:51:58.147Z,7.36
2023-01-01T08:54:24.681Z,7.41
2023-01-01T08:56:51.090Z,7.49
2023-01-01T08:59:17.565Z,7.58
2023-01-01T09:01:44.233Z,7.64
2023-01-01T09:04:15.499Z,7.71
2023-01-01T09:06:42.710Z,7.78
2023-01-01T09:09:09.126Z,7.84
2023-01-01T09:11:36.416Z,8.05
2023-01-01T09:14:02.938Z,8.49
2023-01-01T09:16:29.627Z,8.90
2023-01-01T09:18:56.125Z,9.20
2023-01-01T09:21:23.080Z,9.46
2023-01-01T09:23:49.464Z,9.59
2023-01-01T09:26:15.855Z,9.60
2023-01-01T09:28:42.653Z,9.69
2023-01-01T09:31:09.281Z,9.79
2023-01-01T09:33:35.798Z,9.71
2023-01-01T09:36:16.581Z,9.59
2023-01-01T09:38:43.029Z,9.56
2023-01-01T09:41:19.873Z,9.63
2023-01-01T09:44:20.220Z,9.84
2023-01-01T09:46:47.569Z,9.80
2023-01-01T09:49:28.653Z,9.68
2023-01-01T09:51:59.210Z,9.58
2023-01-01T09:54:29.719Z,9.62
2023-01-01T09:57:00.358Z,9.73
2023-01-01T09:59:27.409Z,9.83
2023-01-01T10:01:56.667Z,9.88
2023-01-01T10:04:29.121Z,9.89
2023-01-01T10:07:13.903Z,9.88
2023-01-01T10:10:02.824Z,9.82
2023-01-01T10:12:46.155Z,9.79
2023-01-01T10:15:18.534Z,9.77
2023-01-01T10:17:50.915Z,9.78
2023-01-01T10:20:24.460Z,9.80
2023-01-01T10:22:57.712Z,9.84
2023-01-01T10:25:31.625Z,9.89
2023-01-01T10:28:13.846Z,9.98
2023-01-01T10:30:41.938Z,10.00
2023-01-01T10:33:13.784Z,10.01
2023-01-01T10:35:44.594Z,10.05
2023-01-01T10:38:22.310Z,10.09
2023-01-01T10:40:49.912Z,10.06
2023-01-01T10:43:16.533Z,10.03
2023-01-01T10:45:49.046Z,10.00
2023-01-01T10:48:24.165Z,9.96
2023-01-01T10:51:01.146Z,9.87
2023-01-01T10:53:34.775Z,9.79
2023-01-01T10:56:19.587Z,9.73
2023-01-01T10:58:56.909Z,9.70
2023-01-01T11:01:23.580Z,9.71
2023-01-01T11:04:09.438Z,9.72
2023-01-01T11:06:42.128Z,9.72
2023-01-01T11:09:28.656Z,9.74
2023-01-01T11:12:07.865Z,9.75
2023-01-01T11:14:43.092Z,9.81
2023-01-01T11:17:10.578Z,9.96
2023-01-01T11:19:42.098Z,10.15
2023-01-01T11:22:41.166Z,10.25
2023-01-01T11:25:28.555Z,10.27
2023-01-01T11:28:34.639Z,10.31
2023-01-01T11:31:14.006Z,10.32
2023-01-01T11:33:49.640Z,10.31
2023-01-01T11:36:31.350Z,10.32
2023-01-01T11:39:16.815Z,10.34
2023-01-01T11:41:49.407Z,10.35
2023-01-01T11:44:34.167Z,10.38
2023-01-01T11:47:01.320Z,10.41
2023-01-01T11:49:30.221Z,10.47
2023-01-01T11:51:58.101Z,10.55
2023-01-01T11:54:33.353Z,10.64
2023-01-01T11:57:09.533Z,10.76
2023-01-01T11:59:47.120Z,10.94
2023-01-01T12:02:24.621Z,11.11
2023-01-01T12:05:00.422Z,11.32
2023-01-01T12:07:34.576Z,11.50
2023-01-01T12:10:18.532Z,11.64
2023-01-01T12:13:03.261Z,11.73
2023-01-01T12:15:41.720Z,11.81
2023-01-01T12:18:15.307Z,11.91
2023-01-01T12:20:53.744Z,12.03
2023-01-01T12:23:20.398Z,12.18
2023-01-01T12:25:56.098Z,12.29
2023-01-01T12:28:48.567Z,12.32
2023-01-01T12:31:18.065Z,12.36
2023-01-01T12:33:44.538Z,12.43
2023-01-01T12:36:26.346Z,12.52
2023-01-01T12:39:28.016Z,12.55
2023-01-01T12:42:00.549Z,12.56
2023-01-01T12:44:26.905Z,12.57
2023-01-01T12:47:02.385Z,12.54
2023-01-01T12:49:54.879Z,12.37
2023-01-01T12:52:47.042Z,12.18
2023-01-01T12:55:43.984Z,12.06
2023-01-01T12:58:24.236Z,11.92
2023-01-01T13:00:57.237Z,11.83
2023-01-01T13:03:42.723Z,11.83
2023-01-01T13:06:12.703Z,11.81
2023-01-01T13:08:42.176Z,11.83
2023-01-01T13:11:10.201Z,11.89
2023-01-01T13:13:36.747Z,11.93
2023-01-01T13:16:03.632Z,11.83
2023-01-01T13:18:35.068Z,11.66
2023-01-01T13:21:07.506Z,11.49
2023-01-01T13:23:34.069Z,11.34
2023-01-01T13:26:18.756Z,11.24
2023-01-01T13:28:57.404Z,11.17
2023-01-01T13:31:39.430Z,11.15
2023-01-01T13:34:30.839Z,11.06
2023-01-01T13:37:12.694Z,10.95
2023-01-01T13:39:54.275Z,10.86
2023-01-01T13:42:45.274Z,10.75
2023-01-01T13:45:44.218Z,10.63
2023-01-01T13:48:26.104Z,10.57
2023-01-01T13:51:39.957Z,10.49
2023-01-01T13:54:09.788Z,10.35
2023-01-01T13:56:52.568Z,10.22
2023-01-01T13:59:40.831Z,10.10
2023-01-01T14:02:22.710Z,9.98
2023-01-01T14:04:52.035Z,9.85
2023-01-01T14:07:50.216Z,9.75
2023-01-01T14:10:33.146Z,9.61
2023-01-01T14:13:05.473Z,9.47
2023-01-01T14:15:34.310Z,9.35
2023-01-01T14:18:04.821Z,9.24
2023-01-01T14:20:42.440Z,9.13
2023-01-01T14:23:17.707Z,9.00
2023-01-01T14:25:45.362Z,8.88
2023-01-01T14:28:22.343Z,8.76
2023-01-01T14:30:49.520Z,8.62
2023-01-01T14:33:30.771Z,8.49
2023-01-01T14:36:02.646Z,8.35
2023-01-01T14:38:32.243Z,8.21
2023-01-01T14:41:29.239Z,8.07
2023-01-01T14:44:06.292Z,7.90
2023-01-01T14:46:33.652Z,7.75
2023-01-01T14:49:09.803Z,7.62
2023-01-01T14:51:44.049Z,7.52
2023-01-01T14:54:18.325Z,7.39
2023-01-01T14:56:49.903Z,7.26
2023-01-01T14:59:32.828Z,7.14
2023-01-01T15:02:02.578Z,7.04
2023-01-01T15:04:30.033Z,6.94
2023-01-01T15:06:58.863Z,6.82
2023-01-01T15:09:27.172Z,6.70
2023-01-01T15:11:55.442Z,6.62
2023-01-01T15:14:54.903Z,6.59
2023-01-01T15:17:23.937Z,6.52
2023-01-01T15:20:05.982Z,6.45
2023-01-01T15:22:37.947Z,6.38
2023-01-01T15:25:04.996Z,6.35
2023-01-01T15:27:36.606Z,6.35
2023-01-01T15:30:11.658Z,6.31
2023-01-01T15:32:40.387Z,6.25
2023-01-01T15:35:22.680Z,6.22
2023-01-01T15:37:55.132Z,6.16
2023-01-01T15:40:21.470Z,6.07
2023-01-01T15:42:57.209Z,6.00
2023-01-01T15:45:37.683Z,5.94
2023-01-01T15:48:04.355Z,5.85
2023-01-01T15:50:49.329Z,5.80
2023-01-01T15:53:21.288Z,5.78
2023-01-01T15:56:05.371Z,5.73
2023-01-01T15:58:41.919Z,5.65
2023-01-01T16:01:11.654Z,5.55
2023-01-01T16:03:40.946Z,5.45
2023-01-01T16:06:08.092Z,5.34
2023-01-01T16:08:34.612Z,5.24
2023-01-01T16:11:01.072Z,5.17
2023-01-01T16:13:27.725Z,5.10
2023-01-01T16:15:58.346Z,5.03
2023-01-01T16:18:30.933Z,4.96
2023-01-01T16:20:58.079Z,4.95
2023-01-01T16:23:24.726Z,4.92
2023-01-01T16:25:51.602Z,4.88
2023-01-01T16:28:18.333Z,4.83
2023-01-01T16:30:46.300Z,4.76
2023-01-01T16:33:18.373Z,4.71
2023-01-01T16:35:45.401Z,4.66
2023-01-01T16:38:12.230Z,4.59
2023-01-01T16:40:38.915Z,4.52
2023-01-01T16:43:06.632Z,4.43
2023-01-01T16:45:33.084Z,4.37
2023-01-01T16:47:59.636Z,4.30
2023-01-01T16:50:26.278Z,4.23
2023-01-01T16:52:52.684Z,4.17
2023-01-01T16:55:19.251Z,4.10
2023-01-01T16:57:47.943Z,4.02
2023-01-01T17:00:15.148Z,3.97
2023-01-01T17:02:41.899Z,3.93
2023-01-01T17:05:09.999Z,3.89
2023-01-01T17:07:36.557Z,3.86
2023-01-01T17:10:03.038Z,3.83
2023-01-01T17:12:29.432Z,3.81
2023-01-01T17:14:55.803Z,3.76
2023-01-01T17:17:22.246Z,3.72
2023-01-01T17:19:48.741Z,3.70
2023-01-01T17:22:15.279Z,3.65
2023-01-01T17:24:42.128Z,3.59
2023-01-01T17:27:08.670Z,3.55
2023-01-01T17:29:35.064Z,3.52
2023-01-01T17:32:01.647Z,3.50
2023-01-01T17:34:28.048Z,3.47
2023-01-01T17:36:54.793Z,3.42
2023-01-01T17:39:21.473Z,3.38
2023-01-01T17:41:48.958Z,3.33
2023-01-01T17:44:15.521Z,3.27
2023-01-01T17:46:42.108Z,3.23
2023-01-01T17:49:09.848Z,3.21
2023-01-01T17:51:36.635Z,3.23
2023-01-01T17:54:03.383Z,3.23
2023-01-01T17:56:30.230Z,3.19
2023-01-01T17:58:56.613Z,3.17
2023-01-01T18:01:23.274Z,3.12
2023-01-01T18:03:52.193Z,3.12
2023-01-01T18:06:19.352Z,3.12
2023-01-01T18:08:46.414Z,3.08
2023-01-01T18:11:12.949Z,3.08
2023-01-01T18:13:39.791Z,3.06
2023-01-01T18:16:09.490Z,3.02
2023-01-01T18:18:37.857Z,2.97
2023-01-01T18:21:07.199Z,2.90
2023-01-01T18:23:39.879Z,2.84
2023-01-01T18:26:10.071Z,2.78
2023-01-01T18:28:37.457Z,2.76
2023-01-01T18:31:06.128Z,2.75
2023-01-01T18:33:34.860Z,2.71
2023-01-01T18:36:17.358Z,2.68
2023-01-01T18:38:46.846Z,2.63
2023-01-01T18:41:31.624Z,2.57
2023-01-01T18:43:58.163Z,2.52
2023-01-01T18:46:24.630Z,2.46
2023-01-01T18:48:55.497Z,2.41
2023-01-01T18:51:26.382Z,2.37
2023-01-01T18:53:58.661Z,2.31
2023-01-01T18:56:26.010Z,2.25
2023-01-01T18:58:56.272Z,2.21
2023-01-01T19:01:24.331Z,2.17
2023-01-01T19:03:54.774Z,2.16
2023-01-01T19:06:30.120Z,2.21
2023-01-01T19:09:27.263Z,2.26
2023-01-01T19:11:55.201Z,2.31
2023-01-01T19:14:24.177Z,2.39
2023-01-01T19:16:55.668Z,2.52
2023-01-01T19:19:23.247Z,2.72
2023-01-01T19:21:57.571Z,2.80
2023-01-01T19:24:27.568Z,2.84
2023-01-01T19:27:02.729Z,2.85
2023-01-01T19:29:30.878Z,2.84
2023-01-01T19:31:58.353Z,2.86
2023-01-01T19:34:25.585Z,2.92
2023-01-01T19:36:52.353Z,3.00
2023-01-01T19:39:19.203Z,3.07
2023-01-01T19:41:46.172Z,3.03
2023-01-01T19:44:12.606Z,2.99
2023-01-01T19:46:39.499Z,2.97
2023-01-01T19:49:06.133Z,2.92
2023-01-01T19:51:32.635Z,2.86
2023-01-01T19:53:59.375Z,2.80
2023-01-01T19:56:25.814Z,2.72
2023-01-01T19:58:52.963Z,2.64
2023-01-01T20:01:19.559Z,2.56
2023-01-01T20:03:56.068Z,2.47
2023-01-01T20:06:24.169Z,2.39
2023-01-01T20:08:51.097Z,2.32
2023-01-01T20:11:17.848Z,2.24
2023-01-01T20:13:44.586Z,2.17
2023-01-01T20:16:11.371Z,2.12
2023-01-01T20:18:37.948Z,2.07
2023-01-01T20:21:04.710Z,2.03
2023-01-01T20:23:31.137Z,2.00
2023-01-01T20:25:57.687Z,1.99
2023-01-01T20:28:24.326Z,1.94
2023-01-01T20:30:50.739Z,1.91
2023-01-01T20:33:17.302Z,1.89
2023-01-01T20:35:43.754Z,1.84
2023-01-01T20:38:10.162Z,1.80
2023-01-01T20:40:36.606Z,1.75
2023-01-01T20:43:03.146Z,1.71
2023-01-01T20:45:29.713Z,1.71
2023-01-01T20:47:56.270Z,1.69
2023-01-01T20:50:22.712Z,1.68
2023-01-01T20:52:49.182Z,1.65
2023-01-01T20:55:16.366Z,1.62
2023-01-01T20:57:42.895Z,1.65
2023-01-01T21:00:10.157Z,1.64
2023-01-01T21:02:36.825Z,1.66
2023-01-01T21:05:03.738Z,1.64
2023-01-01T21:07:30.299Z,1.60
2023-01-01T21:09:56.678Z,1.57
2023-01-01T21:12:23.250Z,1.52
2023-01-01T21:14:49.792Z,1.49
2023-01-01T21:17:20.512Z,1.44
2023-01-01T21:19:46.942Z,1.41
2023-01-01T21:22:14.127Z,1.35
2023-01-01T21:24:40.652Z,1.31
2023-01-01T21:27:20.397Z,1.30
2023-01-01T21:29:49.546Z,1.27
2023-01-01T21:32:43.547Z,1.29
2023-01-01T21:35:31.741Z,1.33
2023-01-01T21:37:59.829Z,1.33
2023-01-01T21:40:47.964Z,1.32
2023-01-01T21:43:44.389Z,1.30
2023-01-01T21:46:10.853Z,1.27
2023-01-01T21:48:43.588Z,1.24
2023-01-01T21:51:22.980Z,1.24
2023-01-01T21:53:49.506Z,1.26
2023-01-01T21:56:32.210Z,1.23
2023-01-01T21:59:10.240Z,1.21
2023-01-01T22:01:38.000Z,1.19
2023-01-01T22:04:10.510Z,1.19
2023-01-01T22:06:44.067Z,1.18
2023-01-01T22:09:26.756Z,1.17
2023-01-01T22:11:57.538Z,1.21
2023-01-01T22:14:27.339Z,1.26
2023-01-01T22:16:55.651Z,1.33
2023-01-01T22:19:31.201Z,1.32
2023-01-01T22:21:58.035Z,1.27
2023-01-01T22:24:32.250Z,1.23
2023-01-01T22:27:22.719Z,1.21
2023-01-01T22:29:49.229Z,1.23
2023-01-01T22:32:28.076Z,1.24
2023-01-01T22:35:25.894Z,1.20
2023-01-01T22:37:55.993Z,1.15
2023-01-01T22:40:28.309Z,1.09
2023-01-01T22:43:02.318Z,1.06
2023-01-01T22:45:29.371Z,1.02
2023-01-01T22:48:05.609Z,0.99
2023-01-01T22:50:32.753Z,1.00
2023-01-01T22:52:59.219Z,1.01
2023-01-01T22:55:26.092Z,1.02
2023-01-01T22:57:52.702Z,1.00
2023-01-01T23:00:19.562Z,0.98
2023-01-01T23:02:46.211Z,0.97
2023-01-01T23:05:12.940Z,0.97
2023-01-01T23:07:42.255Z,0.97
2023-01-01T23:10:12.179Z,0.98
2023-01-01T23:12:38.849Z,0.98
2023-01-01T23:15:06.248Z,0.96
2023-01-01T23:17:32.697Z,0.93
2023-01-01T23:19:59.235Z,0.93
2023-01-01T23:22:30.489Z,0.96
2023-01-01T23:24:57.752Z,0.96
2023-01-01T23:27:24.346Z,1.01
2023-01-01T23:29:53.003Z,1.05
2023-01-01T23:32:20.131Z,1.07
2023-01-01T23:34:47.245Z,1.13
2023-01-01T23:37:14.952Z,1.20
2023-01-01T23:39:41.348Z,1.19
2023-01-01T23:42:07.935Z,1.16
2023-01-01T23:44:34.320Z,1.16
2023-01-01T23:47:01.385Z,1.19
2023-01-01T23:49:29.393Z,1.20
2023-01-01T23:51:56.063Z,1.19
2023-01-01T23:54:22.577Z,1.20
2023-01-01T23:56:49.037Z,1.21
2023-01-01T23:59:15.764Z,1.26
